createdAt,value
2019-02-07T00:00:04.826Z,1000.54
2019-02-07T00:01:04.851Z,1000.53
2019-02-07T00:02:04.870Z,1000.51
2019-02-07T00:03:04.896Z,1000.55
2019-02-07T00:04:04.917Z,1000.53
2019-02-07T00:05:04.939Z,1000.50
2019-02-07T00:06:04.963Z,1000.52
2019-02-07T00:07:04.987Z,1000.50
2019-02-07T00:08:05.009Z,1000.49
2019-02-07T00:09:05.031Z,1000.47
2019-02-07T00:10:05.055Z,1000.45
2019-02-07T00:11:05.077Z,1000.45
2019-02-07T00:12:05.103Z,1000.45
2019-02-07T00:13:05.123Z,1000.44
2019-02-07T00:14:05.146Z,1000.45
2019-02-07T00:15:05.169Z,1000.51
2019-02-07T00:16:05.192Z,1000.50
2019-02-07T00:17:05.214Z,1000.48
2019-02-07T00:18:05.239Z,1000.48
2019-02-07T00:19:05.260Z,1000.50
2019-02-07T00:20:05.285Z,1000.55
2019-02-07T00:21:05.306Z,1000.55
2019-02-07T00:22:05.329Z,1000.51
2019-02-07T00:23:05.354Z,1000.52
2019-02-07T00:24:05.375Z,1000.50
2019-02-07T00:25:05.398Z,1000.51
2019-02-07T00:26:05.421Z,1000.44
2019-02-07T00:27:05.444Z,1000.45
2019-02-07T00:28:05.466Z,1000.45
2019-02-07T00:29:05.494Z,1000.40
2019-02-07T00:30:05.511Z,1000.37
2019-02-07T00:31:07.843Z,1000.40
2019-02-07T00:32:05.558Z,1000.38
2019-02-07T00:33:05.579Z,1000.33
2019-02-07T00:34:05.603Z,1000.28
2019-02-07T00:35:05.627Z,1000.21
2019-02-07T00:36:05.650Z,1000.27
2019-02-07T00:37:05.672Z,1000.28
2019-02-07T00:38:05.693Z,1000.24
2019-02-07T00:39:05.720Z,1000.27
2019-02-07T00:40:05.740Z,1000.22
2019-02-07T00:41:05.762Z,1000.23
2019-02-07T00:42:05.786Z,1000.22
2019-02-07T00:43:05.811Z,1000.23
2019-02-07T00:44:05.831Z,1000.19
2019-02-07T00:45:05.853Z,1000.21
2019-02-07T00:46:05.876Z,1000.20
2019-02-07T00:47:05.899Z,1000.19
2019-02-07T00:48:05.922Z,1000.16
2019-02-07T00:49:05.944Z,1000.14
2019-02-07T00:50:05.968Z,1000.24
2019-02-07T00:51:05.990Z,1000.16
2019-02-07T00:52:06.015Z,1000.17
2019-02-07T00:53:06.035Z,1000.12
2019-02-07T00:54:06.068Z,1000.15
2019-02-07T00:55:06.081Z,1000.18
2019-02-07T00:56:06.105Z,1000.15
2019-02-07T00:57:06.127Z,1000.18
2019-02-07T00:58:06.151Z,1000.19
2019-02-07T00:59:06.171Z,1000.14
2019-02-07T01:00:06.196Z,1000.10
2019-02-07T01:01:06.226Z,1000.07
2019-02-07T01:02:06.239Z,1000.07
2019-02-07T01:03:06.265Z,1000.11
2019-02-07T01:04:06.286Z,1000.12
2019-02-07T01:05:06.356Z,1000.10
2019-02-07T01:06:08.033Z,999.99
2019-02-07T01:07:06.355Z,999.98
2019-02-07T01:08:06.376Z,999.93
2019-02-07T01:09:06.398Z,999.88
2019-02-07T01:10:06.421Z,999.92
2019-02-07T01:11:06.445Z,999.87
2019-02-07T01:12:06.468Z,999.83
2019-02-07T01:13:06.490Z,999.77
2019-02-07T01:14:06.512Z,999.72
2019-02-07T01:15:06.535Z,999.71
2019-02-07T01:16:06.625Z,999.69
2019-02-07T01:17:06.580Z,999.66
2019-02-07T01:18:06.602Z,999.60
2019-02-07T01:19:06.627Z,999.62
2019-02-07T01:20:06.650Z,999.60
2019-02-07T01:21:06.670Z,999.62
2019-02-07T01:22:06.693Z,999.66
2019-02-07T01:23:06.716Z,999.63
2019-02-07T01:24:06.740Z,999.60
2019-02-07T01:25:06.761Z,999.59
2019-02-07T01:26:06.784Z,999.55
2019-02-07T01:27:06.808Z,999.55
2019-02-07T01:28:06.831Z,999.52
2019-02-07T01:29:06.853Z,999.54
2019-02-07T01:30:06.875Z,999.52
2019-02-07T01:31:06.899Z,999.50
2019-02-07T01:32:06.922Z,999.47
2019-02-07T01:33:06.942Z,999.37
2019-02-07T01:34:06.967Z,999.39
2019-02-07T01:35:06.989Z,999.35
2019-02-07T01:36:07.011Z,999.39
2019-02-07T01:37:07.033Z,999.38
2019-02-07T01:38:07.056Z,999.41
2019-02-07T01:39:07.080Z,999.36
2019-02-07T01:40:07.102Z,999.34
2019-02-07T01:41:08.881Z,999.35
2019-02-07T01:42:07.146Z,999.31
2019-02-07T01:43:07.170Z,999.33
2019-02-07T01:44:07.195Z,999.32
2019-02-07T01:45:12.946Z,999.38
2019-02-07T01:46:07.238Z,999.38
2019-02-07T01:47:07.262Z,999.37
2019-02-07T01:48:07.285Z,999.36
2019-02-07T01:49:07.305Z,999.36
2019-02-07T01:50:07.328Z,999.31
2019-02-07T01:51:07.352Z,999.35
2019-02-07T01:52:07.375Z,999.34
2019-02-07T01:53:07.396Z,999.28
2019-02-07T01:54:07.419Z,999.31
2019-02-07T01:55:07.443Z,999.29
2019-02-07T01:56:07.467Z,999.29
2019-02-07T01:57:07.487Z,999.33
2019-02-07T01:58:07.510Z,999.26
2019-02-07T01:59:07.535Z,999.22
2019-02-07T02:00:07.557Z,999.27
2019-02-07T02:01:07.578Z,999.26
2019-02-07T02:02:07.601Z,999.23
2019-02-07T02:03:07.625Z,999.28
2019-02-07T02:04:07.647Z,999.21
2019-02-07T02:05:07.671Z,999.14
2019-02-07T02:06:07.695Z,999.20
2019-02-07T02:07:07.717Z,999.09
2019-02-07T02:08:07.741Z,999.07
2019-02-07T02:09:07.761Z,999.09
2019-02-07T02:10:07.784Z,999.03
2019-02-07T02:11:07.808Z,999.04
2019-02-07T02:12:07.830Z,999.04
2019-02-07T02:13:07.853Z,999.03
2019-02-07T02:14:07.875Z,999.02
2019-02-07T02:15:07.899Z,998.99
2019-02-07T02:16:09.827Z,998.92
2019-02-07T02:17:07.944Z,998.88
2019-02-07T02:18:07.967Z,998.88
2019-02-07T02:19:07.995Z,998.87
2019-02-07T02:20:08.016Z,998.89
2019-02-07T02:21:08.036Z,998.85
2019-02-07T02:22:08.060Z,998.90
2019-02-07T02:23:08.082Z,998.94
2019-02-07T02:24:08.105Z,998.95
2019-02-07T02:25:08.127Z,998.92
2019-02-07T02:26:08.150Z,998.96
2019-02-07T02:27:08.173Z,998.88
2019-02-07T02:28:08.198Z,998.88
2019-02-07T02:29:08.219Z,998.84
2019-02-07T02:30:08.243Z,998.87
2019-02-07T02:31:08.265Z,998.80
2019-02-07T02:32:08.289Z,998.80
2019-02-07T02:33:08.311Z,998.87
2019-02-07T02:34:08.335Z,998.79
2019-02-07T02:35:08.363Z,998.82
2019-02-07T02:36:08.381Z,998.74
2019-02-07T02:37:08.403Z,998.80
2019-02-07T02:38:08.426Z,998.71
2019-02-07T02:39:08.449Z,998.74
2019-02-07T02:40:08.474Z,998.71
2019-02-07T02:41:08.494Z,998.71
2019-02-07T02:42:08.519Z,998.71
2019-02-07T02:43:08.541Z,998.64
2019-02-07T02:44:08.566Z,998.65
2019-02-07T02:45:08.588Z,998.63
2019-02-07T02:46:08.609Z,998.61
2019-02-07T02:47:08.633Z,998.66
2019-02-07T02:48:08.658Z,998.69
2019-02-07T02:49:08.679Z,998.63
2019-02-07T02:50:08.703Z,998.67
2019-02-07T02:51:10.880Z,998.65
2019-02-07T02:52:08.749Z,998.65
2019-02-07T02:53:08.772Z,998.64
2019-02-07T02:54:08.793Z,998.67
2019-02-07T02:55:08.818Z,998.65
2019-02-07T02:56:08.841Z,998.69
2019-02-07T02:57:08.865Z,998.63
2019-02-07T02:58:08.886Z,998.62
2019-02-07T02:59:08.910Z,998.69
2019-02-07T03:00:08.936Z,998.67
2019-02-07T03:01:08.956Z,998.65
2019-02-07T03:02:08.979Z,998.58
2019-02-07T03:03:09.001Z,998.56
2019-02-07T03:04:09.025Z,998.56
2019-02-07T03:05:09.049Z,998.58
2019-02-07T03:06:09.071Z,998.52
2019-02-07T03:07:09.095Z,998.56
2019-02-07T03:08:09.117Z,998.50
2019-02-07T03:09:09.140Z,998.50
2019-02-07T03:10:09.167Z,998.48
2019-02-07T03:11:09.186Z,998.47
2019-02-07T03:12:09.212Z,998.45
2019-02-07T03:13:09.232Z,998.39
2019-02-07T03:14:09.257Z,998.38
2019-02-07T03:15:09.279Z,998.40
2019-02-07T03:16:09.302Z,998.38
2019-02-07T03:17:09.330Z,998.36
2019-02-07T03:18:09.348Z,998.39
2019-02-07T03:19:09.372Z,998.39
2019-02-07T03:20:09.396Z,998.30
2019-02-07T03:21:09.417Z,998.39
2019-02-07T03:22:09.441Z,998.34
2019-02-07T03:23:09.466Z,998.39
2019-02-07T03:24:09.487Z,998.36
2019-02-07T03:25:09.509Z,998.44
2019-02-07T03:26:09.531Z,998.41
2019-02-07T03:27:09.555Z,998.43
2019-02-07T03:28:09.578Z,998.38
2019-02-07T03:29:09.602Z,998.41
2019-02-07T03:30:09.634Z,998.40
2019-02-07T03:31:09.649Z,998.35
2019-02-07T03:32:09.725Z,998.30
2019-02-07T03:33:09.692Z,998.29
2019-02-07T03:34:09.716Z,998.27
2019-02-07T03:35:09.746Z,998.33
2019-02-07T03:36:09.763Z,998.31
2019-02-07T03:37:09.784Z,998.22
2019-02-07T03:38:09.807Z,998.26
2019-02-07T03:39:09.831Z,998.20
2019-02-07T03:40:09.855Z,998.10
2019-02-07T03:41:09.879Z,998.12
2019-02-07T03:42:09.906Z,998.17
2019-02-07T03:43:09.926Z,998.21
2019-02-07T03:44:09.955Z,998.21
2019-02-07T03:45:09.969Z,998.16
2019-02-07T03:46:09.990Z,998.14
2019-02-07T03:47:10.017Z,998.09
2019-02-07T03:48:10.038Z,998.02
2019-02-07T03:49:10.061Z,998.09
2019-02-07T03:50:10.082Z,998.12
2019-02-07T03:51:10.106Z,998.10
2019-02-07T03:52:10.131Z,998.12
2019-02-07T03:53:10.152Z,998.13
2019-02-07T03:54:10.177Z,998.13
2019-02-07T03:55:10.200Z,998.11
2019-02-07T03:56:10.522Z,998.06
2019-02-07T03:57:10.245Z,998.05
2019-02-07T03:58:10.266Z,998.00
2019-02-07T03:59:10.289Z,998.02
2019-02-07T04:00:10.314Z,998.00
2019-02-07T04:01:10.336Z,997.96
2019-02-07T04:02:10.358Z,998.08
2019-02-07T04:03:10.385Z,998.05
2019-02-07T04:04:10.405Z,997.98
2019-02-07T04:05:10.428Z,997.98
2019-02-07T04:06:10.450Z,997.89
2019-02-07T04:07:10.472Z,997.90
2019-02-07T04:08:10.497Z,997.84
2019-02-07T04:09:10.518Z,997.88
2019-02-07T04:10:10.543Z,997.91
2019-02-07T04:11:10.565Z,997.98
2019-02-07T04:12:10.591Z,997.94
2019-02-07T04:13:10.611Z,997.92
2019-02-07T04:14:10.634Z,997.93
2019-02-07T04:15:10.656Z,997.98
2019-02-07T04:16:15.334Z,997.92
2019-02-07T04:17:10.702Z,997.90
2019-02-07T04:18:10.726Z,997.89
2019-02-07T04:19:10.748Z,997.94
2019-02-07T04:20:10.771Z,997.90
2019-02-07T04:21:10.793Z,997.91
2019-02-07T04:22:10.817Z,997.91
2019-02-07T04:23:10.841Z,997.95
2019-02-07T04:24:10.862Z,997.95
2019-02-07T04:25:10.887Z,997.91
2019-02-07T04:26:10.915Z,997.95
2019-02-07T04:27:10.931Z,997.89
2019-02-07T04:28:10.956Z,997.94
2019-02-07T04:29:10.979Z,997.93
2019-02-07T04:30:11.006Z,997.89
2019-02-07T04:31:11.025Z,997.89
2019-02-07T04:32:11.052Z,997.85
2019-02-07T04:33:11.072Z,997.77
2019-02-07T04:34:11.092Z,997.78
2019-02-07T04:35:11.124Z,997.77
2019-02-07T04:36:11.139Z,997.79
2019-02-07T04:37:11.162Z,997.81
2019-02-07T04:38:11.189Z,997.77
2019-02-07T04:39:11.207Z,997.79
2019-02-07T04:40:12.413Z,997.79
2019-02-07T04:41:11.254Z,997.76
2019-02-07T04:42:11.279Z,997.71
2019-02-07T04:43:11.349Z,997.77
2019-02-07T04:44:11.325Z,997.80
2019-02-07T04:45:11.344Z,997.77
2019-02-07T04:46:11.371Z,997.79
2019-02-07T04:47:11.392Z,997.75
2019-02-07T04:48:11.416Z,997.77
2019-02-07T04:49:11.437Z,997.70
2019-02-07T04:50:11.460Z,997.73
2019-02-07T04:51:11.483Z,997.69
2019-02-07T04:52:11.507Z,997.72
2019-02-07T04:53:11.530Z,997.75
2019-02-07T04:54:11.554Z,997.77
2019-02-07T04:55:11.574Z,997.78
2019-02-07T04:56:11.599Z,997.81
2019-02-07T04:57:11.671Z,997.77
2019-02-07T04:58:11.645Z,997.71
2019-02-07T04:59:11.667Z,997.77
2019-02-07T05:00:11.691Z,997.74
2019-02-07T05:01:11.721Z,997.69
2019-02-07T05:02:11.737Z,997.65
2019-02-07T05:03:11.762Z,997.64
2019-02-07T05:04:11.782Z,997.58
2019-02-07T05:05:11.806Z,997.61
2019-02-07T05:06:11.827Z,997.58
2019-02-07T05:07:11.851Z,997.56
2019-02-07T05:08:11.890Z,997.61
2019-02-07T05:09:11.896Z,997.62
2019-02-07T05:10:11.925Z,997.64
2019-02-07T05:11:11.943Z,997.65
2019-02-07T05:12:11.966Z,997.68
2019-02-07T05:13:11.989Z,997.65
2019-02-07T05:14:12.046Z,997.60
2019-02-07T05:15:12.037Z,997.66
2019-02-07T05:16:12.060Z,997.60
2019-02-07T05:17:12.085Z,997.57
2019-02-07T05:18:12.109Z,997.69
2019-02-07T05:19:12.129Z,997.66
2019-02-07T05:20:12.151Z,997.67
2019-02-07T05:21:12.176Z,997.62
2019-02-07T05:22:12.197Z,997.65
2019-02-07T05:23:12.220Z,997.64
2019-02-07T05:24:12.245Z,997.67
2019-02-07T05:25:12.265Z,997.67
2019-02-07T05:26:12.290Z,997.63
2019-02-07T05:27:12.314Z,997.64
2019-02-07T05:28:12.334Z,997.62
2019-02-07T05:29:12.358Z,997.67
2019-02-07T05:30:12.385Z,997.67
2019-02-07T05:31:12.407Z,997.70
2019-02-07T05:32:12.428Z,997.64
2019-02-07T05:33:12.451Z,997.60
2019-02-07T05:34:12.478Z,997.66
2019-02-07T05:35:12.498Z,997.71
2019-02-07T05:36:12.527Z,997.61
2019-02-07T05:37:12.594Z,997.63
2019-02-07T05:38:12.570Z,997.72
2019-02-07T05:39:12.592Z,997.66
2019-02-07T05:40:12.621Z,997.65
2019-02-07T05:41:12.636Z,997.51
2019-02-07T05:42:12.660Z,997.55
2019-02-07T05:43:12.686Z,997.53
2019-02-07T05:44:12.707Z,997.59
2019-02-07T05:45:12.729Z,997.58
2019-02-07T05:46:12.752Z,997.60
2019-02-07T05:47:12.776Z,997.59
2019-02-07T05:48:12.800Z,997.54
2019-02-07T05:49:12.823Z,997.58
2019-02-07T05:50:12.844Z,997.61
2019-02-07T05:51:12.868Z,997.53
2019-02-07T05:52:12.892Z,997.48
2019-02-07T05:53:12.915Z,997.51
2019-02-07T05:54:12.938Z,997.49
2019-02-07T05:55:12.961Z,997.42
2019-02-07T05:56:12.983Z,997.46
2019-02-07T05:57:13.008Z,997.42
2019-02-07T05:58:13.029Z,997.40
2019-02-07T05:59:13.055Z,997.35
2019-02-07T06:00:13.077Z,997.30
2019-02-07T06:01:13.099Z,997.25
2019-02-07T06:02:13.123Z,997.24
2019-02-07T06:03:13.145Z,997.24
2019-02-07T06:04:13.169Z,997.26
2019-02-07T06:05:13.191Z,997.18
2019-02-07T06:06:13.215Z,997.23
2019-02-07T06:07:13.238Z,997.23
2019-02-07T06:08:13.262Z,997.26
2019-02-07T06:09:13.286Z,997.22
2019-02-07T06:10:13.307Z,997.19
2019-02-07T06:11:13.330Z,997.19
2019-02-07T06:12:13.353Z,997.22
2019-02-07T06:13:13.510Z,997.24
2019-02-07T06:14:13.401Z,997.26
2019-02-07T06:15:13.423Z,997.24
2019-02-07T06:16:13.445Z,997.24
2019-02-07T06:17:13.468Z,997.22
2019-02-07T06:18:13.492Z,997.22
2019-02-07T06:19:13.515Z,997.24
2019-02-07T06:20:13.538Z,997.23
2019-02-07T06:21:13.562Z,997.18
2019-02-07T06:22:13.584Z,997.22
2019-02-07T06:23:13.609Z,997.21
2019-02-07T06:24:13.631Z,997.20
2019-02-07T06:25:13.654Z,997.18
2019-02-07T06:26:13.678Z,997.19
2019-02-07T06:27:13.701Z,997.16
2019-02-07T06:28:13.724Z,997.16
2019-02-07T06:29:13.749Z,997.16
2019-02-07T06:30:13.771Z,997.09
2019-02-07T06:31:13.795Z,997.13
2019-02-07T06:32:13.818Z,997.07
2019-02-07T06:33:13.842Z,997.09
2019-02-07T06:34:13.864Z,997.09
2019-02-07T06:35:13.889Z,997.09
2019-02-07T06:36:13.911Z,997.07
2019-02-07T06:37:13.937Z,996.99
2019-02-07T06:38:13.957Z,997.08
2019-02-07T06:39:13.982Z,997.11
2019-02-07T06:40:14.007Z,997.08
2019-02-07T06:41:14.029Z,997.08
2019-02-07T06:42:14.055Z,997.09
2019-02-07T06:43:14.076Z,997.15
2019-02-07T06:44:14.100Z,997.12
2019-02-07T06:45:14.123Z,997.12
2019-02-07T06:46:14.148Z,997.10
2019-02-07T06:47:14.173Z,997.10
2019-02-07T06:48:14.195Z,997.12
2019-02-07T06:49:14.219Z,997.12
2019-02-07T06:50:14.242Z,997.12
2019-02-07T06:51:14.267Z,997.08
2019-02-07T06:52:14.292Z,997.06
2019-02-07T06:53:14.314Z,996.98
2019-02-07T06:54:14.338Z,996.97
2019-02-07T06:55:14.361Z,996.99
2019-02-07T06:56:14.386Z,996.87
2019-02-07T06:57:16.962Z,996.82
2019-02-07T06:58:14.432Z,996.90
2019-02-07T06:59:14.457Z,996.91
2019-02-07T07:00:14.487Z,996.92
2019-02-07T07:01:14.504Z,996.85
2019-02-07T07:02:14.528Z,996.85
2019-02-07T07:03:14.553Z,996.87
2019-02-07T07:04:14.592Z,996.85
2019-02-07T07:05:14.600Z,996.88
2019-02-07T07:06:14.623Z,996.91
2019-02-07T07:07:14.647Z,996.89
2019-02-07T07:08:14.673Z,996.90
2019-02-07T07:09:14.697Z,996.91
2019-02-07T07:10:14.719Z,996.96
2019-02-07T07:11:14.744Z,996.94
2019-02-07T07:12:14.817Z,996.93
2019-02-07T07:13:14.791Z,996.91
2019-02-07T07:14:14.817Z,996.91
2019-02-07T07:15:14.839Z,996.84
2019-02-07T07:16:14.863Z,996.87
2019-02-07T07:17:24.963Z,996.87
2019-02-07T07:18:14.912Z,996.83
2019-02-07T07:19:14.935Z,996.81
2019-02-07T07:20:14.963Z,996.80
2019-02-07T07:21:14.985Z,996.79
2019-02-07T07:22:15.006Z,996.75
2019-02-07T07:23:15.032Z,996.71
2019-02-07T07:24:15.056Z,996.73
2019-02-07T07:25:15.080Z,996.69
2019-02-07T07:26:15.121Z,996.72
2019-02-07T07:27:15.142Z,996.68
2019-02-07T07:28:15.153Z,996.70
2019-02-07T07:29:15.176Z,996.67
2019-02-07T07:30:15.201Z,996.71
2019-02-07T07:31:15.226Z,996.65
2019-02-07T07:32:16.382Z,996.66
2019-02-07T07:33:15.275Z,996.65
2019-02-07T07:34:15.299Z,996.64
2019-02-07T07:35:15.377Z,996.67
2019-02-07T07:36:15.348Z,996.68
2019-02-07T07:37:15.371Z,996.64
2019-02-07T07:38:15.397Z,996.64
2019-02-07T07:39:15.420Z,996.60
2019-02-07T07:40:15.445Z,996.60
2019-02-07T07:41:15.469Z,996.59
2019-02-07T07:42:15.493Z,996.57
2019-02-07T07:43:15.534Z,996.60
2019-02-07T07:44:15.563Z,996.61
2019-02-07T07:45:15.582Z,996.54
2019-02-07T07:46:15.611Z,996.55
2019-02-07T07:47:15.628Z,996.55
2019-02-07T07:48:15.658Z,996.50
2019-02-07T07:49:15.679Z,996.52
2019-02-07T07:50:15.691Z,996.51
2019-02-07T07:51:15.737Z,996.53
2019-02-07T07:52:15.851Z,996.58
2019-02-07T07:53:15.777Z,996.57
2019-02-07T07:54:15.788Z,996.54
2019-02-07T07:55:15.814Z,996.50
2019-02-07T07:56:15.839Z,996.48
2019-02-07T07:57:15.862Z,996.45
2019-02-07T07:58:15.888Z,996.47
2019-02-07T07:59:15.912Z,996.38
2019-02-07T08:00:18.914Z,996.40
2019-02-07T08:01:15.961Z,996.41
2019-02-07T08:02:15.986Z,996.42
2019-02-07T08:03:16.011Z,996.42
2019-02-07T08:04:16.036Z,996.44
2019-02-07T08:05:16.062Z,996.45
2019-02-07T08:06:16.085Z,996.44
2019-02-07T08:07:16.112Z,996.42
2019-02-07T08:08:16.137Z,996.50
2019-02-07T08:09:16.158Z,996.49
2019-02-07T08:10:16.186Z,996.48
2019-02-07T08:11:16.210Z,996.41
2019-02-07T08:12:16.236Z,996.43
2019-02-07T08:13:16.298Z,996.45
2019-02-07T08:14:16.326Z,996.48
2019-02-07T08:15:16.400Z,996.49
2019-02-07T08:16:16.336Z,996.45
2019-02-07T08:17:16.401Z,996.44
2019-02-07T08:18:16.384Z,996.44
2019-02-07T08:19:16.409Z,996.36
2019-02-07T08:20:16.436Z,996.38
2019-02-07T08:21:16.510Z,996.33
2019-02-07T08:22:16.484Z,996.36
2019-02-07T08:23:16.509Z,996.28
2019-02-07T08:24:16.534Z,996.25
2019-02-07T08:25:16.560Z,996.34
2019-02-07T08:26:16.586Z,996.27
2019-02-07T08:27:16.611Z,996.28
2019-02-07T08:28:16.636Z,996.28
2019-02-07T08:29:16.660Z,996.32
2019-02-07T08:30:16.687Z,996.30
2019-02-07T08:31:16.712Z,996.28
2019-02-07T08:32:16.737Z,996.29
2019-02-07T08:33:16.765Z,996.24
2019-02-07T08:34:16.786Z,996.24
2019-02-07T08:35:16.812Z,996.23
2019-02-07T08:36:16.837Z,996.14
2019-02-07T08:37:16.863Z,996.16
2019-02-07T08:38:16.889Z,996.19
2019-02-07T08:39:16.913Z,996.21
2019-02-07T08:40:16.939Z,996.16
2019-02-07T08:41:16.964Z,996.13
2019-02-07T08:42:16.989Z,996.13
2019-02-07T08:43:17.015Z,996.20
2019-02-07T08:44:17.040Z,996.17
2019-02-07T08:45:17.065Z,996.16
2019-02-07T08:46:17.089Z,996.12
2019-02-07T08:47:17.115Z,996.12
2019-02-07T08:48:17.141Z,996.17
2019-02-07T08:49:17.165Z,996.19
2019-02-07T08:50:17.256Z,996.15
2019-02-07T08:51:17.267Z,996.11
2019-02-07T08:52:17.242Z,996.15
2019-02-07T08:53:17.267Z,996.15
2019-02-07T08:54:17.293Z,996.15
2019-02-07T08:55:17.318Z,996.13
2019-02-07T08:56:17.346Z,996.12
2019-02-07T08:57:17.368Z,996.05
2019-02-07T08:58:17.394Z,996.05
2019-02-07T08:59:17.421Z,996.08
2019-02-07T09:00:17.445Z,996.04
2019-02-07T09:01:17.471Z,996.04
2019-02-07T09:02:17.496Z,996.05
2019-02-07T09:03:17.521Z,996.03
2019-02-07T09:04:17.548Z,996.08
2019-02-07T09:05:17.574Z,996.06
2019-02-07T09:06:17.598Z,995.96
2019-02-07T09:07:17.624Z,995.95
2019-02-07T09:08:17.651Z,995.98
2019-02-07T09:09:17.677Z,995.98
2019-02-07T09:10:17.701Z,996.02
2019-02-07T09:11:17.726Z,996.06
2019-02-07T09:12:17.753Z,996.04
2019-02-07T09:13:17.777Z,996.01
2019-02-07T09:14:17.803Z,995.96
2019-02-07T09:15:17.830Z,995.98
2019-02-07T09:16:17.856Z,995.98
2019-02-07T09:17:17.887Z,995.98
2019-02-07T09:18:17.911Z,996.00
2019-02-07T09:19:17.932Z,995.99
2019-02-07T09:20:18.017Z,996.02
2019-02-07T09:21:17.983Z,996.00
2019-02-07T09:22:18.009Z,996.04
2019-02-07T09:23:18.034Z,995.99
2019-02-07T09:24:18.119Z,995.99
2019-02-07T09:25:18.085Z,996.05
2019-02-07T09:26:18.113Z,996.02
2019-02-07T09:27:18.139Z,996.03
2019-02-07T09:28:18.164Z,996.04
2019-02-07T09:29:18.191Z,995.99
2019-02-07T09:30:18.215Z,995.96
2019-02-07T09:31:18.241Z,996.03
2019-02-07T09:32:18.273Z,996.00
2019-02-07T09:33:18.292Z,996.05
2019-02-07T09:34:18.318Z,996.03
2019-02-07T09:35:18.344Z,996.03
2019-02-07T09:36:18.371Z,996.14
2019-02-07T09:37:18.408Z,996.06
2019-02-07T09:38:18.472Z,996.08
2019-02-07T09:39:18.449Z,996.07
2019-02-07T09:40:18.475Z,996.03
2019-02-07T09:41:18.500Z,996.01
2019-02-07T09:42:18.527Z,996.02
2019-02-07T09:43:18.553Z,996.06
2019-02-07T09:44:18.580Z,996.00
2019-02-07T09:45:18.606Z,995.92
2019-02-07T09:46:18.632Z,995.96
2019-02-07T09:47:18.658Z,995.94
2019-02-07T09:48:21.770Z,995.88
2019-02-07T09:49:18.710Z,995.89
2019-02-07T09:50:18.737Z,995.91
2019-02-07T09:51:18.764Z,995.87
2019-02-07T09:52:18.790Z,995.87
2019-02-07T09:53:24.070Z,995.88
2019-02-07T09:54:18.841Z,995.82
2019-02-07T09:55:18.869Z,995.90
2019-02-07T09:56:18.895Z,995.89
2019-02-07T09:57:19.038Z,995.88
2019-02-07T09:58:18.947Z,995.91
2019-02-07T09:59:18.974Z,995.85
2019-02-07T10:00:19.001Z,995.93
2019-02-07T10:01:19.027Z,995.89
2019-02-07T10:02:19.098Z,995.85
2019-02-07T10:03:19.081Z,995.91
2019-02-07T10:04:19.111Z,995.89
2019-02-07T10:05:19.135Z,995.95
2019-02-07T10:06:19.160Z,995.93
2019-02-07T10:07:19.186Z,995.93
2019-02-07T10:08:19.214Z,995.95
2019-02-07T10:09:19.239Z,995.93
2019-02-07T10:10:19.266Z,995.91
2019-02-07T10:11:19.293Z,995.88
2019-02-07T10:12:19.320Z,995.92
2019-02-07T10:13:19.346Z,995.92
2019-02-07T10:14:19.373Z,995.90
2019-02-07T10:15:19.405Z,995.92
2019-02-07T10:16:19.477Z,995.88
2019-02-07T10:17:19.454Z,995.93
2019-02-07T10:18:19.482Z,995.83
2019-02-07T10:19:19.507Z,995.95
2019-02-07T10:20:19.534Z,995.94
2019-02-07T10:21:19.564Z,995.81
2019-02-07T10:22:19.587Z,995.87
2019-02-07T10:23:19.614Z,995.94
2019-02-07T10:24:19.642Z,995.88
2019-02-07T10:25:19.668Z,995.91
2019-02-07T10:26:19.696Z,995.89
2019-02-07T10:27:19.722Z,995.86
2019-02-07T10:28:19.751Z,995.91
2019-02-07T10:29:19.781Z,995.89
2019-02-07T10:30:19.819Z,995.93
2019-02-07T10:31:19.831Z,995.95
2019-02-07T10:32:19.857Z,995.98
2019-02-07T10:33:19.884Z,996.01
2019-02-07T10:34:19.912Z,996.03
2019-02-07T10:35:22.806Z,995.96
2019-02-07T10:36:20.397Z,996.03
2019-02-07T10:37:19.992Z,996.04
2019-02-07T10:38:20.020Z,996.02
2019-02-07T10:39:20.049Z,995.97
2019-02-07T10:40:20.074Z,995.98
2019-02-07T10:41:20.109Z,995.94
2019-02-07T10:42:20.129Z,996.04
2019-02-07T10:43:20.159Z,996.01
2019-02-07T10:44:20.183Z,996.00
2019-02-07T10:45:20.209Z,996.02
2019-02-07T10:46:21.545Z,996.05
2019-02-07T10:47:20.268Z,995.99
2019-02-07T10:48:20.344Z,995.93
2019-02-07T10:49:20.367Z,995.87
2019-02-07T10:50:20.347Z,995.83
2019-02-07T10:51:20.379Z,995.83
2019-02-07T10:52:20.403Z,995.84
2019-02-07T10:53:20.432Z,995.85
2019-02-07T10:54:20.457Z,995.87
2019-02-07T10:55:20.487Z,995.87
2019-02-07T10:56:20.516Z,995.81
2019-02-07T10:57:20.543Z,995.74
2019-02-07T10:58:20.570Z,995.67
2019-02-07T10:59:20.599Z,995.68
2019-02-07T11:00:20.627Z,995.69
2019-02-07T11:01:20.654Z,995.73
2019-02-07T11:02:20.684Z,995.70
2019-02-07T11:03:20.711Z,995.69
2019-02-07T11:04:20.739Z,995.64
2019-02-07T11:05:20.769Z,995.63
2019-02-07T11:06:20.795Z,995.66
2019-02-07T11:07:20.824Z,995.66
2019-02-07T11:08:20.851Z,995.60
2019-02-07T11:09:20.886Z,995.68
2019-02-07T11:10:20.908Z,995.71
2019-02-07T11:11:20.936Z,995.73
2019-02-07T11:12:20.965Z,995.78
2019-02-07T11:13:20.992Z,995.78
2019-02-07T11:14:21.022Z,995.77
2019-02-07T11:15:21.050Z,995.78
2019-02-07T11:16:21.078Z,995.75
2019-02-07T11:17:21.106Z,995.77
2019-02-07T11:18:21.137Z,995.77
2019-02-07T11:19:21.733Z,995.81
2019-02-07T11:20:21.190Z,995.84
2019-02-07T11:21:21.219Z,995.79
2019-02-07T11:22:23.090Z,995.83
2019-02-07T11:23:21.275Z,995.88
2019-02-07T11:24:21.303Z,995.95
2019-02-07T11:25:21.330Z,995.90
2019-02-07T11:26:21.358Z,995.95
2019-02-07T11:27:21.387Z,995.94
2019-02-07T11:28:21.415Z,996.04
2019-02-07T11:29:21.443Z,996.02
2019-02-07T11:30:21.473Z,996.02
2019-02-07T11:31:21.499Z,996.05
2019-02-07T11:32:21.530Z,996.06
2019-02-07T11:33:21.561Z,996.04
2019-02-07T11:34:21.585Z,996.00
2019-02-07T11:35:21.613Z,995.99
2019-02-07T11:36:21.642Z,995.96
2019-02-07T11:37:21.669Z,995.95
2019-02-07T11:38:21.698Z,995.95
2019-02-07T11:39:21.726Z,995.94
2019-02-07T11:40:21.754Z,995.96
2019-02-07T11:41:21.783Z,995.87
2019-02-07T11:42:21.815Z,995.76
2019-02-07T11:43:21.840Z,995.73
2019-02-07T11:44:21.873Z,995.77
2019-02-07T11:45:21.896Z,995.80
2019-02-07T11:46:21.924Z,995.79
2019-02-07T11:47:21.954Z,995.78
2019-02-07T11:48:21.984Z,995.82
2019-02-07T11:49:22.009Z,995.87
2019-02-07T11:50:22.038Z,995.83
2019-02-07T11:51:22.073Z,995.85
2019-02-07T11:52:22.096Z,995.87
2019-02-07T11:53:22.126Z,995.88
2019-02-07T11:54:22.154Z,995.90
2019-02-07T11:55:22.183Z,995.85
2019-02-07T11:56:22.212Z,995.84
2019-02-07T11:57:22.238Z,995.88
2019-02-07T11:58:22.268Z,995.85
2019-02-07T11:59:22.397Z,995.81
2019-02-07T12:00:22.327Z,995.79
2019-02-07T12:01:22.354Z,995.78
2019-02-07T12:02:22.383Z,995.84
2019-02-07T12:03:22.413Z,995.83
2019-02-07T12:04:22.441Z,995.80
2019-02-07T12:05:22.470Z,995.84
2019-02-07T12:06:22.498Z,995.84
2019-02-07T12:07:22.527Z,995.83
2019-02-07T12:08:22.564Z,995.78
2019-02-07T12:09:22.583Z,995.77
2019-02-07T12:10:22.611Z,995.76
2019-02-07T12:11:22.641Z,995.81
2019-02-07T12:12:22.669Z,995.80
2019-02-07T12:13:22.702Z,995.72
2019-02-07T12:14:22.736Z,995.78
2019-02-07T12:15:22.755Z,995.75
2019-02-07T12:16:22.785Z,995.73
2019-02-07T12:17:23.102Z,995.73
2019-02-07T12:18:22.842Z,995.76
2019-02-07T12:19:22.870Z,995.73
2019-02-07T12:20:22.898Z,995.72
2019-02-07T12:21:22.927Z,995.73
2019-02-07T12:22:22.955Z,995.70
2019-02-07T12:23:22.985Z,995.63
2019-02-07T12:24:23.014Z,995.63
2019-02-07T12:25:23.044Z,995.67
2019-02-07T12:26:23.069Z,995.65